Flight Track Log - Related Links

Times and Time Zones

All times are in EDT time to prevent confusion due to time zone crossing. See the N6239Y flight status page for this flight to view local times or setup timezone preferences in your user account.


Time Position Orientation Groundspeed Altitude Reporting Facility
EDT Latitude Longitude Course Direction KTS MPH feet Rate Location/Type
Sun 02:11:58 PM 41.4478 -82.8464 152° Southeast 110 127 2,800  Level Cleveland Center
Sun 02:12:16 PM 41.4394 -82.8406 152° Southeast 103 119 2,900 462 Climbing Cleveland Center
Sun 02:14:47 PM 41.3775 -82.7756 142° Southeast 111 128 4,100 451 Climbing Indianapolis Center
Sun 02:15:49 PM 41.3461 -82.7578 157° South 116 133 4,500 435 Climbing Indianapolis Center
Sun 02:16:51 PM 41.3153 -82.7389 155° Southeast 119 137 5,000 484 Climbing Indianapolis Center
Sun 02:17:53 PM 41.2856 -82.7200 154° Southeast 119 137 5,500 439 Climbing Indianapolis Center
Sun 02:18:54 PM 41.2536 -82.7008 156° South 122 140 5,900 439 Climbing Indianapolis Center
Sun 02:19:56 PM 41.2222 -82.6806 154° Southeast 123 142 6,400 435 Climbing Indianapolis Center
Sun 02:20:58 PM 41.1917 -82.6611 154° Southeast 122 140 6,800 339 Climbing Indianapolis Center
Sun 02:22:00 PM 41.1600 -82.6406 154° Southeast 124 143 7,100 146 Climbing Indianapolis Center
Sun 02:23:01 PM 41.1250 -82.6183 154° Southeast 134 154 7,100  Level Indianapolis Center
Sun 02:24:03 PM 41.0806 -82.5900 154° Southeast 148 170 7,100  Level Indianapolis Center
Sun 02:25:05 PM 41.0433 -82.5664 154° Southeast 148 170 7,100  Level Indianapolis Center
Sun 02:26:07 PM 41.0064 -82.5436 155° Southeast 145 167 7,100  Level Indianapolis Center
Sun 02:27:09 PM 40.9692 -82.5181 153° Southeast 149 171 7,100  Level Indianapolis Center
Sun 02:28:10 PM 40.9311 -82.4944 155° Southeast 149 171 7,100  Level Indianapolis Center
Sun 02:29:12 PM 40.8928 -82.4728 157° South 148 170 7,100  Level Indianapolis Center
Sun 02:30:14 PM 40.8558 -82.4475 153° Southeast 148 170 7,100  Level Indianapolis Center
Sun 02:31:16 PM 40.8172 -82.4233 155° Southeast 151 174 7,100 -48 Level Indianapolis Center
Sun 02:32:18 PM 40.7742 -82.3983 156° South 146 168 7,000 -48 Descending Indianapolis Center
Sun 02:33:20 PM 40.7372 -82.3753 155° Southeast 146 168 7,000  Level Indianapolis Center
Sun 02:34:22 PM 40.6997 -82.3528 156° South 146 168 7,000  Level Indianapolis Center
Sun 02:35:24 PM 40.6614 -82.3283 154° Southeast 150 173 7,000  Level Indianapolis Center
Sun 02:36:25 PM 40.6242 -82.3056 155° Southeast 148 170 7,000  Level Indianapolis Center
Sun 02:37:27 PM 40.5867 -82.2819 154° Southeast 148 170 7,000  Level Indianapolis Center
Sun 02:38:29 PM 40.5489 -82.2594 156° South 149 171 7,000  Level Indianapolis Center
Sun 02:39:31 PM 40.5114 -82.2364 155° Southeast 147 169 7,000  Level Indianapolis Center
Sun 02:40:33 PM 40.4700 -82.2117 156° South 140 161 7,000 -194 Level Indianapolis Center
Sun 02:41:35 PM 40.4319 -82.1886 155° Southeast 146 168 6,600 -387 Descending Indianapolis Center
Sun 02:42:37 PM 40.3903 -82.1606 153° Southeast 161 185 6,200 -390 Descending Indianapolis Center
Sun 02:43:38 PM 40.3481 -82.1367 157° South 163 188 5,800 -439 Descending Indianapolis Center
Sun 02:44:40 PM 40.3092 -82.1150 157° South 155 178 5,300 -532 Descending Indianapolis Center
Sun 02:45:42 PM 40.2700 -82.0908 155° Southeast 153 176 4,700 -532 Descending Indianapolis Center
Sun 02:46:44 PM 40.2278 -82.0636 154° Southeast 160 184 4,200 -484 Descending Indianapolis Center

Login

Don't have an account? Register now (free) for customized features, flight alerts, and more!